Time;durP1;ratioP1;P1;durP2;ratioP2;P2;SDS_P1;SDS_P2;PMS_P1;PMS_P2;Temp;Humidity;BMP_temperature;BMP_pressure;BME280_temperature;BME280_humidity;BME280_pressure;Samples;Min_cycle;Max_cycle;Signal;HPM_P1;HPM_P2
2023/01/08 00:00:27;;;;;;;14.10;10.20;;;;;;;0.76;99.25;96713.38;105660;1303;22465;-82
2023/01/08 00:03:19;;;;;;;14.40;10.30;;;;;;;0.77;99.39;96707.59;105710;1302;24348;-82
2023/01/08 00:05:47;;;;;;;13.20;10.30;;;;;;;0.76;99.40;96708.20;105662;1295;23399;-82
2023/01/08 00:08:17;;;;;;;11.40;7.90;;;;;;;0.78;99.71;96702.96;105726;1301;22573;-82
2023/01/08 00:10:53;;;;;;;11.90;8.90;;;;;;;0.82;99.94;96697.21;105663;1302;23175;-82
2023/01/08 00:13:21;;;;;;;15.30;9.60;;;;;;;0.87;100.00;96694.13;105560;1303;22497;-82
2023/01/08 00:15:49;;;;;;;13.10;9.60;;;;;;;0.88;100.00;96687.17;105725;1291;22964;-82
2023/01/08 00:18:20;;;;;;;13.60;10.00;;;;;;;0.83;99.90;96683.59;105733;1292;23115;-82
2023/01/08 00:20:49;;;;;;;14.10;9.10;;;;;;;0.75;99.71;96681.23;105691;1302;22475;-82
2023/01/08 00:23:19;;;;;;;15.40;10.10;;;;;;;0.72;99.85;96679.38;105715;1303;22457;-82
2023/01/08 00:25:47;;;;;;;14.50;9.60;;;;;;;0.65;99.55;96678.98;105712;1295;22462;-83
2023/01/08 00:28:15;;;;;;;13.10;8.80;;;;;;;0.68;99.85;96678.64;105705;1292;22474;-82
2023/01/08 00:30:44;;;;;;;12.70;8.00;;;;;;;0.77;100.00;96678.00;105662;1302;31230;-82
2023/01/08 00:33:12;;;;;;;13.70;9.40;;;;;;;0.83;100.00;96675.64;105730;1303;22568;-82
2023/01/08 00:35:41;;;;;;;12.90;8.80;;;;;;;0.86;100.00;96675.44;105711;1294;22472;-82
2023/01/08 00:38:09;;;;;;;12.50;9.50;;;;;;;0.89;100.00;96672.68;105705;1303;22497;-83
2023/01/08 00:40:39;;;;;;;12.40;8.90;;;;;;;0.91;100.00;96667.48;105638;1285;22460;-82
2023/01/08 00:43:08;;;;;;;13.90;9.50;;;;;;;0.88;100.00;96669.68;105705;1302;22624;-82
2023/01/08 00:45:37;;;;;;;11.90;8.30;;;;;;;0.81;100.00;96665.02;105700;1302;22937;-82
2023/01/08 00:48:06;;;;;;;11.00;8.10;;;;;;;0.75;100.00;96662.81;105728;1303;22524;-82
2023/01/08 00:50:35;;;;;;;12.60;8.10;;;;;;;0.72;100.00;96660.99;105614;1285;25277;-82
2023/01/08 00:53:03;;;;;;;11.40;7.70;;;;;;;0.69;100.00;96663.49;105705;1303;22465;-82
2023/01/08 00:55:32;;;;;;;11.80;7.90;;;;;;;0.62;100.00;96661.48;105695;1293;22461;-82
2023/01/08 00:58:00;;;;;;;11.60;7.90;;;;;;;0.54;100.00;96661.45;105730;1286;22458;-82
2023/01/08 01:00:29;;;;;;;13.90;9.40;;;;;;;0.47;100.00;96664.05;105699;1295;22940;-82
2023/01/08 01:02:57;;;;;;;14.50;9.60;;;;;;;0.43;100.00;96668.65;105709;1285;25308;-82
2023/01/08 01:05:26;;;;;;;14.20;10.60;;;;;;;0.39;100.00;96666.73;105704;1286;22468;-82
2023/01/08 01:07:55;;;;;;;14.90;10.80;;;;;;;0.35;100.00;96665.21;105621;1295;22514;-82
2023/01/08 01:10:24;;;;;;;17.70;11.60;;;;;;;0.31;100.00;96665.92;105691;1279;23222;-82
2023/01/08 01:12:52;;;;;;;14.50;11.70;;;;;;;0.28;100.00;96665.30;105698;1301;22468;-82
2023/01/08 01:15:21;;;;;;;16.00;10.90;;;;;;;0.24;100.00;96661.39;105699;1294;24234;-82
2023/01/08 01:17:49;;;;;;;14.50;10.70;;;;;;;0.19;100.00;96661.56;105715;1303;25396;-82
2023/01/08 01:20:18;;;;;;;15.60;11.00;;;;;;;0.12;100.00;96657.70;105697;1303;22462;-82
2023/01/08 01:22:46;;;;;;;13.60;10.70;;;;;;;0.07;100.00;96657.63;105702;1285;22484;-82
2023/01/08 01:25:15;;;;;;;13.90;10.60;;;;;;;0.02;100.00;96655.09;105691;1294;22483;-82
2023/01/08 01:27:43;;;;;;;14.20;10.40;;;;;;;-0.04;100.00;96651.63;105518;1304;22501;-82
2023/01/08 01:30:13;;;;;;;13.30;9.90;;;;;;;-0.07;100.00;96643.55;105655;1301;22496;-82
2023/01/08 01:32:41;;;;;;;14.80;10.80;;;;;;;-0.10;100.00;96649.99;105755;1302;22414;-82
2023/01/08 01:35:10;;;;;;;15.50;11.20;;;;;;;-0.12;100.00;96646.33;105538;1303;22467;-82
2023/01/08 01:37:40;;;;;;;15.50;10.70;;;;;;;-0.14;99.98;96647.86;105539;1303;23413;-82
2023/01/08 01:40:10;;;;;;;15.00;10.60;;;;;;;-0.20;99.97;96642.51;105694;1285;22456;-82
2023/01/08 01:43:16;;;;;;;14.40;10.50;;;;;;;-0.19;100.00;96635.38;106270;1298;545043;-82
2023/01/08 01:45:50;;;;;;;14.50;10.60;;;;;;;-0.17;100.00;96632.80;108510;1280;24876;-82
2023/01/08 01:48:21;;;;;;;17.10;11.30;;;;;;;-0.14;100.00;96629.02;108961;1268;22535;-82
2023/01/08 01:50:54;;;;;;;14.20;9.90;;;;;;;-0.12;100.00;96625.48;108826;1275;22556;-82
2023/01/08 01:53:30;;;;;;;14.20;11.40;;;;;;;-0.09;100.00;96629.27;108778;1272;25451;-82
2023/01/08 01:56:04;;;;;;;14.30;10.20;;;;;;;-0.07;100.00;96625.84;108662;1275;161376;-82
2023/01/08 01:58:36;;;;;;;13.70;10.30;;;;;;;0.00;100.00;96623.01;108967;1275;24241;-82
2023/01/08 02:01:09;;;;;;;14.30;10.40;;;;;;;0.01;100.00;96620.98;108921;1272;24756;-82
2023/01/08 02:03:41;;;;;;;14.80;9.90;;;;;;;-0.02;100.00;96618.18;108970;1275;22554;-82
2023/01/08 02:06:23;;;;;;;13.60;9.70;;;;;;;-0.03;100.00;96611.77;108962;1275;22556;-82
2023/01/08 02:09:02;;;;;;;13.90;9.10;;;;;;;-0.07;100.00;96610.64;108978;1269;23849;-82
2023/01/08 02:11:44;;;;;;;13.00;9.60;;;;;;;-0.09;100.00;96617.23;108917;1275;22532;-82
2023/01/08 02:14:24;;;;;;;13.80;10.00;;;;;;;-0.13;100.00;96612.42;108958;1267;22601;-82
2023/01/08 02:17:01;;;;;;;14.40;10.20;;;;;;;-0.17;100.00;96601.48;109198;1271;22584;-82
2023/01/08 02:19:41;;;;;;;15.60;11.40;;;;;;;-0.20;100.00;96597.17;109138;1271;22542;-82
2023/01/08 02:22:24;;;;;;;16.50;11.50;;;;;;;-0.19;100.00;96592.80;109168;1271;22549;-82
2023/01/08 02:25:02;;;;;;;17.70;13.10;;;;;;;-0.18;100.00;96587.06;109171;1266;22528;-82
2023/01/08 02:27:37;;;;;;;18.00;11.70;;;;;;;-0.19;100.00;96585.10;109150;1271;23979;-82
2023/01/08 02:30:10;;;;;;;17.40;12.10;;;;;;;-0.20;100.00;96581.23;109125;1271;22520;-82
2023/01/08 02:32:44;;;;;;;19.80;13.80;;;;;;;-0.22;100.00;96576.35;109210;1271;24269;-82
2023/01/08 02:35:15;;;;;;;18.50;13.00;;;;;;;-0.23;100.00;96571.27;109159;1265;22511;-82
2023/01/08 02:37:47;;;;;;;19.40;14.00;;;;;;;-0.23;100.00;96562.46;109216;1264;22517;-82
2023/01/08 02:40:26;;;;;;;21.00;13.90;;;;;;;-0.25;100.00;96553.98;109102;1271;22551;-82
2023/01/08 02:43:06;;;;;;;13.20;9.50;;;;;;;-0.26;100.00;96557.07;109144;1271;22565;-82
2023/01/08 02:45:46;;;;;;;17.90;12.80;;;;;;;-0.29;100.00;96558.13;109191;1271;25430;-82
2023/01/08 02:48:26;;;;;;;18.20;12.70;;;;;;;-0.38;100.00;96558.87;109212;1271;22524;-82
2023/01/08 02:51:02;;;;;;;16.90;11.90;;;;;;;-0.42;100.00;96560.66;109156;1271;25210;-82
2023/01/08 02:53:37;;;;;;;17.70;11.90;;;;;;;-0.44;100.00;96557.53;109136;1271;24242;-82
2023/01/08 02:56:12;;;;;;;16.50;12.00;;;;;;;-0.47;100.00;96550.70;109109;1271;22561;-82
2023/01/08 02:58:47;;;;;;;18.30;12.30;;;;;;;-0.39;100.00;96551.95;109181;1268;22534;-82
2023/01/08 03:01:21;;;;;;;17.20;12.00;;;;;;;-0.32;100.00;96548.89;109078;1271;25334;-82
2023/01/08 03:03:57;;;;;;;20.50;13.90;;;;;;;-0.25;100.00;96548.60;109100;1264;22526;-83
2023/01/08 03:06:28;;;;;;;16.00;11.20;;;;;;;-0.20;100.00;96548.45;109115;1269;23223;-82
2023/01/08 03:09:01;;;;;;;21.20;14.40;;;;;;;-0.17;100.00;96549.17;109138;1268;27516;-82
2023/01/08 03:11:39;;;;;;;22.80;14.60;;;;;;;-0.13;100.00;96553.37;109052;1272;23360;-82
2023/01/08 03:14:16;;;;;;;15.80;10.70;;;;;;;-0.10;100.00;96554.30;109046;1265;22627;-82
2023/01/08 03:16:52;;;;;;;19.30;13.80;;;;;;;-0.04;100.00;96555.53;109092;1265;22563;-82
2023/01/08 03:19:26;;;;;;;20.60;13.60;;;;;;;0.00;100.00;96549.10;109147;1271;23198;-83
2023/01/08 03:21:58;;;;;;;15.60;10.50;;;;;;;0.10;100.00;96548.77;109202;1271;22518;-82
2023/01/08 03:24:34;;;;;;;19.10;12.40;;;;;;;0.22;100.00;96549.15;109156;1265;22516;-83
2023/01/08 03:27:09;;;;;;;16.20;10.60;;;;;;;0.24;100.00;96550.26;109154;1271;22543;-82
2023/01/08 03:29:48;;;;;;;14.80;7.90;;;;;;;0.27;100.00;96552.55;109070;1268;22530;-82
2023/01/08 03:32:21;;;;;;;20.80;14.40;;;;;;;0.28;100.00;96546.45;109093;1271;23258;-82
2023/01/08 03:34:58;;;;;;;16.80;11.20;;;;;;;0.26;100.00;96552.13;109144;1261;22525;-82
2023/01/08 03:37:35;;;;;;;17.30;12.50;;;;;;;0.24;100.00;96549.94;109106;1262;22526;-82
2023/01/08 03:40:13;;;;;;;12.80;9.20;;;;;;;0.24;100.00;96546.02;109183;1268;22551;-82
2023/01/08 03:42:45;;;;;;;19.00;11.40;;;;;;;0.27;100.00;96544.65;109078;1252;22531;-82
2023/01/08 03:45:19;;;;;;;21.30;13.30;;;;;;;0.26;100.00;96536.51;109116;1271;22521;-82
2023/01/08 03:47:51;;;;;;;15.60;11.60;;;;;;;0.25;100.00;96535.41;109126;1271;22540;-82
2023/01/08 03:50:27;;;;;;;17.50;12.20;;;;;;;0.21;100.00;96540.86;109067;1271;24354;-83
2023/01/08 03:52:58;;;;;;;18.00;12.00;;;;;;;0.19;100.00;96542.29;109093;1265;22546;-82
2023/01/08 03:55:29;;;;;;;15.10;11.10;;;;;;;0.17;100.00;96542.75;109107;1265;23777;-82
2023/01/08 03:58:00;;;;;;;15.00;9.80;;;;;;;0.17;100.00;96535.77;109063;1250;22536;-82
2023/01/08 04:00:31;;;;;;;16.50;11.10;;;;;;;0.18;100.00;96533.39;109035;1271;45896;-82
2023/01/08 04:03:02;;;;;;;15.90;11.40;;;;;;;0.21;100.00;96529.15;109108;1265;22590;-82
2023/01/08 04:05:34;;;;;;;17.30;11.20;;;;;;;0.22;100.00;96528.66;109063;1260;22520;-82
2023/01/08 04:08:06;;;;;;;13.10;9.50;;;;;;;0.17;100.00;96527.44;109142;1271;22611;-82
2023/01/08 04:10:37;;;;;;;14.10;9.70;;;;;;;0.15;100.00;96527.49;109068;1271;28774;-82
2023/01/08 04:13:08;;;;;;;12.50;8.80;;;;;;;0.15;100.00;96526.09;109143;1265;22549;-82
2023/01/08 04:15:39;;;;;;;13.80;9.30;;;;;;;0.23;100.00;96528.73;109097;1268;24199;-82
2023/01/08 04:18:10;;;;;;;13.30;9.70;;;;;;;0.32;100.00;96521.40;109020;1272;23271;-82
2023/01/08 04:20:44;;;;;;;12.50;9.00;;;;;;;0.32;100.00;96521.92;109068;1271;22538;-83
2023/01/08 04:23:16;;;;;;;14.80;8.10;;;;;;;0.34;100.00;96521.81;109062;1272;22511;-83
2023/01/08 04:25:47;;;;;;;13.70;8.90;;;;;;;0.40;100.00;96518.86;109097;1271;25332;-82
2023/01/08 04:28:18;;;;;;;10.70;7.60;;;;;;;0.44;100.00;96518.63;109158;1262;22529;-83
2023/01/08 04:30:49;;;;;;;11.30;7.70;;;;;;;0.50;100.00;96512.11;109065;1268;25374;-82
2023/01/08 04:33:24;;;;;;;12.00;9.00;;;;;;;0.54;100.00;96509.15;109093;1272;22534;-82
2023/01/08 04:35:55;;;;;;;11.90;8.30;;;;;;;0.55;100.00;96511.56;109076;1268;22658;-83
2023/01/08 04:38:26;;;;;;;13.20;8.80;;;;;;;0.52;100.00;96504.61;109148;1265;23507;-82
2023/01/08 04:40:59;;;;;;;10.90;7.80;;;;;;;0.50;100.00;96502.80;109079;1265;23371;-82
2023/01/08 04:43:31;;;;;;;11.70;7.90;;;;;;;0.48;100.00;96500.98;109116;1271;23310;-82
2023/01/08 04:46:06;;;;;;;10.10;7.00;;;;;;;0.45;100.00;96505.79;109110;1264;22547;-82
2023/01/08 04:48:37;;;;;;;11.10;7.90;;;;;;;0.42;100.00;96508.32;109130;1271;22526;-82
2023/01/08 04:51:08;;;;;;;10.90;7.50;;;;;;;0.47;100.00;96505.20;109093;1271;22567;-83
2023/01/08 04:53:40;;;;;;;10.90;7.90;;;;;;;0.52;100.00;96505.45;109154;1271;22658;-82
2023/01/08 04:56:13;;;;;;;12.50;7.80;;;;;;;0.53;100.00;96503.39;109030;1266;22929;-82
2023/01/08 04:58:44;;;;;;;12.50;8.40;;;;;;;0.55;100.00;96501.56;109097;1271;22539;-82
2023/01/08 05:01:19;;;;;;;11.50;7.90;;;;;;;0.53;100.00;96500.99;109004;1269;22523;-82
2023/01/08 05:03:52;;;;;;;11.90;8.60;;;;;;;0.50;100.00;96499.19;109123;1271;22721;-83
2023/01/08 05:06:23;;;;;;;13.70;9.60;;;;;;;0.44;100.00;96500.89;109074;1268;22666;-82
2023/01/08 05:08:56;;;;;;;13.00;8.30;;;;;;;0.39;100.00;96495.80;109115;1271;22544;-82
2023/01/08 05:11:27;;;;;;;12.90;8.40;;;;;;;0.38;100.00;96493.04;109083;1268;22531;-83
2023/01/08 05:13:58;;;;;;;12.40;9.00;;;;;;;0.36;100.00;96494.71;109099;1271;23139;-83
2023/01/08 05:16:29;;;;;;;8.60;5.10;;;;;;;0.38;100.00;96497.41;109095;1271;22558;-83
2023/01/08 05:19:00;;;;;;;12.40;9.10;;;;;;;0.41;100.00;96499.02;109114;1271;22631;-82
2023/01/08 05:21:32;;;;;;;14.50;8.50;;;;;;;0.41;100.00;96500.30;108994;1271;91952;-82
2023/01/08 05:24:03;;;;;;;9.50;6.70;;;;;;;0.40;100.00;96501.16;109160;1271;22546;-82
2023/01/08 05:26:34;;;;;;;11.30;7.70;;;;;;;0.40;100.00;96498.27;109110;1271;25289;-83
2023/01/08 05:29:05;;;;;;;9.60;6.60;;;;;;;0.46;100.00;96495.86;109088;1268;22520;-83
2023/01/08 05:31:37;;;;;;;7.90;5.90;;;;;;;0.52;100.00;96494.86;109068;1268;22537;-82
2023/01/08 05:34:10;;;;;;;7.80;5.10;;;;;;;0.57;100.00;96493.30;109129;1265;22511;-83
2023/01/08 05:36:42;;;;;;;7.90;4.80;;;;;;;0.59;100.00;96496.69;109111;1264;22530;-82
2023/01/08 05:39:13;;;;;;;7.40;4.30;;;;;;;0.63;100.00;96492.39;109105;1271;22610;-83
2023/01/08 05:41:44;;;;;;;9.80;5.20;;;;;;;0.64;100.00;96492.70;109135;1271;22762;-83
2023/01/08 05:44:15;;;;;;;9.40;6.80;;;;;;;0.66;100.00;96487.53;109136;1271;22514;-83
2023/01/08 05:46:47;;;;;;;9.10;6.70;;;;;;;0.66;100.00;96484.48;109228;1270;22614;-83
2023/01/08 05:49:22;;;;;;;10.20;6.60;;;;;;;0.65;100.00;96476.86;109301;1271;23397;-82
2023/01/08 05:51:53;;;;;;;8.70;6.30;;;;;;;0.69;100.00;96471.85;109176;1271;24499;-83
2023/01/08 05:54:25;;;;;;;9.70;6.50;;;;;;;0.68;100.00;96468.80;109271;1270;22543;-82
2023/01/08 05:56:59;;;;;;;7.20;4.90;;;;;;;0.69;100.00;96473.24;109169;1271;22534;-82
2023/01/08 05:59:30;;;;;;;7.80;5.20;;;;;;;0.74;100.00;96469.02;109284;1268;24381;-82
2023/01/08 06:02:01;;;;;;;9.30;5.70;;;;;;;0.82;100.00;96470.08;109178;1271;22526;-82
2023/01/08 06:04:32;;;;;;;8.70;5.50;;;;;;;0.86;100.00;96467.55;109321;1270;23611;-82
2023/01/08 06:07:03;;;;;;;8.00;5.50;;;;;;;0.87;100.00;96465.33;109301;1271;22563;-82
2023/01/08 06:09:35;;;;;;;9.00;6.20;;;;;;;0.89;100.00;96470.32;109316;1271;22540;-83
2023/01/08 06:12:07;;;;;;;8.20;5.10;;;;;;;0.88;100.00;96462.33;109172;1268;62270;-83
2023/01/08 06:14:40;;;;;;;8.20;5.60;;;;;;;0.87;100.00;96457.55;109232;1263;22542;-83
2023/01/08 06:17:12;;;;;;;7.50;5.50;;;;;;;0.87;100.00;96455.13;109292;1268;22544;-83
2023/01/08 06:19:45;;;;;;;6.90;4.70;;;;;;;0.89;100.00;96454.58;109273;1271;22519;-83
2023/01/08 06:22:16;;;;;;;7.40;4.80;;;;;;;0.95;100.00;96450.96;109231;1271;22553;-82
2023/01/08 06:24:50;;;;;;;6.90;4.70;;;;;;;1.02;100.00;96449.54;109192;1271;22520;-83
2023/01/08 06:27:22;;;;;;;7.30;5.30;;;;;;;1.10;100.00;96440.80;109295;1271;22686;-83
2023/01/08 06:29:53;;;;;;;7.90;4.30;;;;;;;1.13;100.00;96440.49;109133;1263;24277;-82
2023/01/08 06:32:24;;;;;;;6.70;4.20;;;;;;;1.14;100.00;96441.08;109235;1271;22527;-83
2023/01/08 06:34:55;;;;;;;4.60;3.50;;;;;;;1.20;100.00;96436.98;109267;1271;22521;-83
2023/01/08 06:37:27;;;;;;;6.30;4.50;;;;;;;1.30;100.00;96433.86;109305;1271;22543;-83
2023/01/08 06:39:59;;;;;;;5.40;3.90;;;;;;;1.36;100.00;96433.77;109241;1270;25670;-83
2023/01/08 06:42:30;;;;;;;7.10;4.30;;;;;;;1.39;100.00;96437.34;109278;1270;22528;-83
2023/01/08 06:45:01;;;;;;;6.40;4.10;;;;;;;1.39;100.00;96440.85;109289;1263;22520;-83
2023/01/08 06:47:34;;;;;;;5.00;3.40;;;;;;;1.42;100.00;96442.98;109269;1271;22575;-83
2023/01/08 06:50:08;;;;;;;6.10;3.80;;;;;;;1.41;100.00;96444.21;109166;1267;22527;-83
2023/01/08 06:52:39;;;;;;;5.40;3.70;;;;;;;1.41;100.00;96448.16;109182;1271;22529;-83
2023/01/08 06:55:12;;;;;;;7.10;4.20;;;;;;;1.41;100.00;96448.45;109175;1271;22571;-83
2023/01/08 06:57:44;;;;;;;5.50;3.50;;;;;;;1.40;100.00;96447.16;109364;1270;22569;-83
2023/01/08 07:00:17;;;;;;;6.50;3.90;;;;;;;1.47;100.00;96449.30;109214;1271;78328;-83
2023/01/08 07:02:49;;;;;;;6.70;3.90;;;;;;;1.56;100.00;96452.92;109284;1268;25431;-83
2023/01/08 07:05:21;;;;;;;7.20;4.30;;;;;;;1.67;100.00;96455.95;109299;1271;25457;-83
2023/01/08 07:07:52;;;;;;;4.30;3.00;;;;;;;1.75;100.00;96448.88;109207;1271;24284;-83
2023/01/08 07:10:25;;;;;;;3.00;2.50;;;;;;;1.80;100.00;96448.46;109272;1268;24212;-83
2023/01/08 07:12:56;;;;;;;3.80;3.20;;;;;;;2.05;100.00;96440.89;109104;1268;22536;-84
2023/01/08 07:15:27;;;;;;;4.70;3.30;;;;;;;2.43;99.91;96437.61;109299;1270;22706;-83
2023/01/08 07:17:59;;;;;;;4.30;2.80;;;;;;;2.69;99.02;96431.63;109277;1271;22520;-84
2023/01/08 07:20:30;;;;;;;3.40;2.70;;;;;;;3.00;98.38;96430.81;109333;1268;22541;-83
2023/01/08 07:23:04;;;;;;;3.40;2.50;;;;;;;3.29;97.42;96426.77;109249;1271;23854;-84
2023/01/08 07:25:36;;;;;;;3.40;2.70;;;;;;;3.57;96.49;96434.86;109320;1271;22525;-84
2023/01/08 07:28:13;;;;;;;3.60;1.90;;;;;;;3.80;95.33;96439.06;109333;1263;22560;-83
2023/01/08 07:30:46;;;;;;;2.80;2.10;;;;;;;4.00;93.71;96429.98;109317;1271;22534;-83
2023/01/08 07:33:17;;;;;;;2.80;2.40;;;;;;;4.16;93.00;96432.89;109355;1271;22521;-83
2023/01/08 07:35:54;;;;;;;2.90;2.50;;;;;;;4.57;93.68;96423.43;109303;1271;22608;-83
2023/01/08 07:38:26;;;;;;;4.20;2.60;;;;;;;4.97;92.92;96422.53;109334;1271;24233;-83
2023/01/08 07:40:59;;;;;;;4.70;3.70;;;;;;;5.11;91.07;96428.67;109279;1271;22629;-83
2023/01/08 07:43:30;;;;;;;3.60;2.70;;;;;;;5.13;89.37;96437.30;109334;1269;22559;-82
2023/01/08 07:46:05;;;;;;;4.90;3.40;;;;;;;5.32;89.41;96442.33;109243;1266;25567;-82
2023/01/08 07:48:36;;;;;;;4.30;3.00;;;;;;;5.60;89.24;96438.67;109355;1271;22541;-82
2023/01/08 07:51:09;;;;;;;3.40;2.80;;;;;;;5.99;89.08;96429.05;109201;1269;55679;-83
2023/01/08 07:53:40;;;;;;;4.90;3.20;;;;;;;6.20;87.16;96414.20;109333;1271;22573;-82
2023/01/08 07:56:14;;;;;;;4.90;3.20;;;;;;;6.04;86.12;96411.62;109340;1271;22572;-82
2023/01/08 07:58:48;;;;;;;3.60;2.80;;;;;;;6.09;86.23;96405.45;109350;1271;24081;-82
2023/01/08 08:01:19;;;;;;;4.00;3.20;;;;;;;5.99;85.82;96401.71;109315;1271;22688;-82
2023/01/08 08:03:51;;;;;;;3.70;2.80;;;;;;;5.97;85.14;96406.64;109271;1270;22999;-83
2023/01/08 08:06:22;;;;;;;4.30;3.00;;;;;;;5.80;84.27;96402.23;109219;1263;22525;-83
2023/01/08 08:08:56;;;;;;;5.40;4.00;;;;;;;5.64;84.81;96392.98;109282;1260;22513;-83
2023/01/08 08:11:28;;;;;;;6.60;4.00;;;;;;;5.71;85.48;96385.55;109172;1268;22532;-82
2023/01/08 08:13:59;;;;;;;3.80;2.80;;;;;;;5.68;83.95;96378.41;109200;1271;22582;-82
2023/01/08 08:16:30;;;;;;;3.80;2.90;;;;;;;5.57;84.25;96369.02;109327;1271;22600;-82
2023/01/08 08:19:02;;;;;;;3.80;2.60;;;;;;;5.61;83.88;96352.87;109169;1271;22541;-82
2023/01/08 08:21:34;;;;;;;7.20;5.20;;;;;;;5.50;82.88;96352.89;109210;1271;24319;-82
2023/01/08 08:24:06;;;;;;;5.50;2.80;;;;;;;5.32;82.62;96348.80;109267;1271;22567;-82
2023/01/08 08:26:39;;;;;;;5.50;3.30;;;;;;;5.13;82.41;96342.44;109282;1271;22541;-82
2023/01/08 08:29:10;;;;;;;4.00;2.40;;;;;;;4.98;82.73;96346.94;109210;1271;22566;-83
2023/01/08 08:31:43;;;;;;;5.50;3.70;;;;;;;4.95;83.28;96346.34;109175;1271;22799;-82
2023/01/08 08:34:19;;;;;;;6.10;4.00;;;;;;;5.06;83.82;96343.30;109270;1271;22557;-83
2023/01/08 08:36:52;;;;;;;5.80;3.50;;;;;;;5.11;83.61;96344.96;109267;1271;23397;-82
2023/01/08 08:39:24;;;;;;;6.00;3.50;;;;;;;5.17;83.69;96354.46;109225;1271;22522;-82
2023/01/08 08:41:55;;;;;;;6.20;4.20;;;;;;;5.17;83.75;96355.36;109220;1271;22551;-83
2023/01/08 08:44:27;;;;;;;3.60;2.40;;;;;;;5.26;84.76;96352.98;109304;1271;22518;-82
2023/01/08 08:46:58;;;;;;;5.20;3.00;;;;;;;5.38;83.95;96352.48;109263;1269;25327;-83
2023/01/08 08:49:29;;;;;;;5.60;4.10;;;;;;;5.25;83.05;96348.34;109263;1271;23155;-82
2023/01/08 08:52:00;;;;;;;6.20;3.50;;;;;;;5.24;83.87;96346.75;109118;1271;25289;-83
2023/01/08 08:54:31;;;;;;;5.30;3.20;;;;;;;5.26;83.53;96344.98;109277;1271;22529;-83
2023/01/08 08:57:05;;;;;;;6.30;4.10;;;;;;;5.24;83.72;96343.08;109312;1269;22727;-83
2023/01/08 08:59:36;;;;;;;4.90;3.60;;;;;;;5.33;84.09;96341.35;109294;1271;22524;-83
2023/01/08 09:02:10;;;;;;;7.10;4.40;;;;;;;5.41;84.00;96338.99;109190;1268;22525;-83
2023/01/08 09:04:41;;;;;;;5.10;3.30;;;;;;;5.40;83.09;96340.67;109229;1263;24272;-83
2023/01/08 09:07:13;;;;;;;6.60;4.30;;;;;;;5.39;82.97;96334.62;109253;1271;23350;-83
2023/01/08 09:09:44;;;;;;;5.60;3.40;;;;;;;5.44;83.24;96326.13;109222;1267;22548;-82
2023/01/08 09:12:16;;;;;;;6.70;4.10;;;;;;;5.48;83.26;96318.44;109276;1269;25293;-83
2023/01/08 09:14:50;;;;;;;5.40;3.60;;;;;;;5.53;83.50;96319.21;109275;1268;22566;-83
2023/01/08 09:17:21;;;;;;;5.60;3.40;;;;;;;5.59;83.34;96316.45;109273;1267;22544;-83
2023/01/08 09:19:54;;;;;;;5.30;3.40;;;;;;;5.59;83.16;96311.72;109276;1269;25349;-83
2023/01/08 09:22:26;;;;;;;4.40;2.90;;;;;;;5.62;83.35;96301.70;109212;1268;22548;-83
2023/01/08 09:24:57;;;;;;;4.70;3.10;;;;;;;5.61;82.56;96293.38;109264;1270;22516;-83
2023/01/08 09:27:28;;;;;;;4.70;3.20;;;;;;;5.58;82.55;96295.77;109208;1271;22573;-83
2023/01/08 09:29:59;;;;;;;4.10;2.80;;;;;;;5.71;82.59;96291.29;109281;1271;22538;-83
2023/01/08 09:32:31;;;;;;;3.30;2.20;;;;;;;5.73;81.69;96292.18;109320;1271;22540;-82
2023/01/08 09:35:02;;;;;;;4.80;3.20;;;;;;;5.79;81.98;96291.49;109276;1268;22696;-83
2023/01/08 09:37:34;;;;;;;6.20;3.40;;;;;;;5.93;82.42;96287.69;109241;1271;22542;-82
2023/01/08 09:40:07;;;;;;;5.20;2.80;;;;;;;5.97;81.41;96281.45;109226;1264;25284;-82
2023/01/08 09:42:38;;;;;;;10.40;4.30;;;;;;;5.94;80.87;96269.81;109189;1271;22548;-83
2023/01/08 09:45:23;;;;;;;5.00;3.30;;;;;;;6.01;81.43;96267.78;109236;1266;22533;-83
2023/01/08 09:47:58;;;;;;;4.00;3.10;;;;;;;6.23;81.68;96269.77;109291;1271;22598;-84
2023/01/08 09:50:34;;;;;;;5.50;3.50;;;;;;;6.39;81.60;96268.33;109226;1271;24196;-83
2023/01/08 09:53:11;;;;;;;7.70;4.80;;;;;;;6.50;81.01;96262.69;109146;1266;25511;-83
2023/01/08 09:55:43;;;;;;;7.40;4.50;;;;;;;6.54;80.67;96260.30;109210;1271;22527;-83
2023/01/08 09:58:30;;;;;;;10.10;6.30;;;;;;;6.53;80.54;96256.98;109258;1271;22929;-82
2023/01/08 10:01:07;;;;;;;9.60;6.20;;;;;;;6.52;80.72;96258.26;109086;1268;38092;-83
2023/01/08 10:03:43;;;;;;;7.90;5.60;;;;;;;6.58;80.96;96257.84;109238;1267;25515;-83
2023/01/08 10:06:17;;;;;;;6.90;4.70;;;;;;;6.67;80.47;96262.87;109264;1271;22516;-83
2023/01/08 10:08:50;;;;;;;6.80;4.80;;;;;;;6.74;80.33;96258.33;109158;1271;22524;-83
2023/01/08 10:11:23;;;;;;;8.40;5.90;;;;;;;6.77;80.41;96253.72;109146;1269;22532;-83
2023/01/08 10:13:57;;;;;;;8.90;5.50;;;;;;;6.77;80.04;96250.30;109173;1271;22534;-83
2023/01/08 10:16:36;;;;;;;6.40;4.70;;;;;;;6.76;80.21;96249.13;109243;1271;22578;-83
2023/01/08 10:19:08;;;;;;;8.00;5.50;;;;;;;6.63;79.49;96242.20;109199;1271;22538;-83
2023/01/08 10:21:41;;;;;;;7.40;4.40;;;;;;;6.54;79.91;96243.20;109248;1270;24283;-83
2023/01/08 10:24:13;;;;;;;6.90;4.90;;;;;;;6.49;79.53;96238.66;109271;1271;25928;-83
2023/01/08 10:26:46;;;;;;;6.30;4.30;;;;;;;6.43;79.86;96238.33;109142;1271;22581;-82
2023/01/08 10:29:19;;;;;;;6.80;4.30;;;;;;;6.44;79.88;96230.27;109268;1270;25268;-83
2023/01/08 10:31:54;;;;;;;6.80;4.50;;;;;;;6.44;79.89;96228.21;109226;1271;22614;-83
2023/01/08 10:34:32;;;;;;;6.30;4.20;;;;;;;6.45;79.74;96230.90;109281;1269;22532;-83
2023/01/08 10:37:18;;;;;;;6.40;4.00;;;;;;;6.43;79.64;96222.90;109209;1269;24327;-83
2023/01/08 10:39:50;;;;;;;7.00;4.30;;;;;;;6.38;79.58;96221.95;109082;1271;25471;-83
2023/01/08 10:42:23;;;;;;;10.00;6.00;;;;;;;6.34;79.92;96217.15;109081;1271;22594;-83
2023/01/08 10:45:02;;;;;;;6.70;4.40;;;;;;;6.41;80.25;96215.68;109205;1264;22531;-83
2023/01/08 10:47:37;;;;;;;5.00;3.50;;;;;;;6.47;80.37;96213.80;109254;1271;22625;-83
2023/01/08 10:50:20;;;;;;;6.40;4.10;;;;;;;6.57;80.11;96209.17;109059;1270;57915;-83
2023/01/08 10:53:00;;;;;;;6.30;3.90;;;;;;;6.70;80.33;96212.14;109226;1270;23164;-83
2023/01/08 10:55:34;;;;;;;5.70;3.50;;;;;;;6.87;79.43;96197.33;109278;1271;22555;-84
2023/01/08 10:58:15;;;;;;;5.50;3.60;;;;;;;7.03;79.28;96194.94;109284;1267;22531;-84
2023/01/08 11:00:46;;;;;;;;;;;;;;;7.10;77.46;96188.51;109246;1271;42482;-83
2023/01/08 11:03:27;;;;;;;5.70;3.60;;;;;;;7.10;77.57;96185.61;109133;1271;22652;-83
2023/01/08 11:06:13;;;;;;;5.50;3.30;;;;;;;7.14;76.46;96186.86;109200;1264;22554;-82
2023/01/08 11:08:54;;;;;;;4.20;3.30;;;;;;;7.04;76.02;96179.56;109248;1271;22538;-83
2023/01/08 11:11:32;;;;;;;5.10;3.10;;;;;;;7.05;76.07;96184.09;109122;1269;22530;-83
2023/01/08 11:14:12;;;;;;;5.20;2.90;;;;;;;7.01;76.09;96176.17;109205;1271;22523;-83
2023/01/08 11:16:47;;;;;;;5.20;3.50;;;;;;;6.90;75.19;96172.40;109293;1271;24206;-83
2023/01/08 11:19:20;;;;;;;4.50;3.00;;;;;;;6.82;75.90;96172.14;109260;1265;22701;-83
2023/01/08 11:22:00;;;;;;;5.00;3.20;;;;;;;6.78;76.35;96164.57;109167;1270;25243;-83
2023/01/08 11:24:34;;;;;;;3.80;3.20;;;;;;;6.73;76.13;96160.70;109232;1269;22957;-82
2023/01/08 11:27:15;;;;;;;3.90;3.20;;;;;;;6.67;75.88;96158.55;109126;1263;22537;-83
2023/01/08 11:29:52;;;;;;;3.60;2.90;;;;;;;6.65;76.09;96149.98;109240;1264;22531;-83
2023/01/08 11:32:37;;;;;;;4.60;3.10;;;;;;;6.57;75.99;96153.81;109220;1270;43745;-83
2023/01/08 11:35:20;;;;;;;5.30;3.40;;;;;;;6.53;76.25;96149.34;109309;1271;22524;-83
2023/01/08 11:37:58;;;;;;;4.30;3.00;;;;;;;6.48;76.45;96154.80;109189;1271;22521;-83
2023/01/08 11:40:39;;;;;;;3.40;2.60;;;;;;;6.49;76.42;96156.61;109131;1270;22725;-83
2023/01/08 11:43:25;;;;;;;5.00;3.40;;;;;;;6.54;76.72;96146.70;109275;1264;22553;-82
2023/01/08 11:46:23;;;;;;;5.30;3.60;;;;;;;6.63;76.83;96136.16;109243;1271;22554;-82
2023/01/08 11:49:16;;;;;;;4.10;3.20;;;;;;;6.73;76.29;96133.15;109173;1264;22535;-83